createdAt,value
2018-04-10T00:00:21.284Z,77.70
2018-04-10T00:02:49.280Z,77.60
2018-04-10T00:05:17.213Z,77.60
2018-04-10T00:07:44.769Z,77.60
2018-04-10T00:10:12.754Z,78.10
2018-04-10T00:12:40.646Z,78.50
2018-04-10T00:15:08.669Z,78.70
2018-04-10T00:17:36.182Z,78.70
2018-04-10T00:20:03.710Z,78.70
2018-04-10T00:22:31.619Z,79.30
2018-04-10T00:24:59.138Z,79.30
2018-04-10T00:27:26.645Z,79.60
2018-04-10T00:29:54.239Z,79.60
2018-04-10T00:32:22.252Z,80.20
2018-04-10T00:34:50.158Z,80.30
2018-04-10T00:37:17.650Z,80.30
2018-04-10T00:39:45.234Z,80.20
2018-04-10T00:42:12.745Z,80.60
2018-04-10T00:44:40.269Z,80.70
2018-04-10T00:47:07.778Z,80.50
2018-04-10T00:49:35.352Z,80.40
2018-04-10T00:52:03.327Z,80.30
2018-04-10T00:54:30.852Z,80.30
2018-04-10T00:56:59.216Z,80.10
2018-04-10T00:59:26.740Z,79.90
2018-04-10T01:01:54.310Z,79.60
2018-04-10T01:04:21.881Z,79.80
2018-04-10T01:06:49.782Z,80.20
2018-04-10T01:09:17.763Z,80.40
2018-04-10T01:11:45.338Z,80.40
2018-04-10T01:14:12.863Z,80.60
2018-04-10T01:16:40.435Z,80.60
2018-04-10T01:19:08.362Z,80.90
2018-04-10T01:21:35.854Z,80.90
2018-04-10T01:24:03.379Z,81.10
2018-04-10T01:26:30.893Z,81.10
2018-04-10T01:28:58.400Z,81.40
2018-04-10T01:31:25.937Z,81.60
2018-04-10T01:33:53.841Z,81.70
2018-04-10T01:36:21.364Z,81.70
2018-04-10T01:38:48.862Z,81.80
2018-04-10T01:41:16.379Z,81.90
2018-04-10T01:43:44.281Z,82.20
2018-04-10T01:46:12.200Z,82.50
2018-04-10T01:48:39.748Z,82.50
2018-04-10T01:51:07.668Z,82.80
2018-04-10T01:53:35.174Z,82.80
2018-04-10T01:56:02.702Z,83.00
2018-04-10T01:58:30.207Z,83.30
2018-04-10T02:00:57.733Z,83.10
2018-04-10T02:03:25.238Z,83.00
2018-04-10T02:05:52.831Z,82.90
2018-04-10T02:08:20.356Z,82.90
2018-04-10T02:10:47.865Z,83.50
2018-04-10T02:13:15.376Z,83.60
2018-04-10T02:15:42.976Z,84.00
2018-04-10T02:18:10.963Z,84.20
2018-04-10T02:20:38.482Z,84.20
2018-04-10T02:23:06.030Z,84.20
2018-04-10T02:25:33.626Z,83.90
2018-04-10T02:28:01.540Z,83.80
2018-04-10T02:30:29.055Z,83.80
2018-04-10T02:32:57.014Z,83.60
2018-04-10T02:35:24.578Z,83.50
2018-04-10T02:37:52.473Z,83.90
2018-04-10T02:40:20.388Z,83.70
2018-04-10T02:42:47.887Z,83.70
2018-04-10T02:45:15.406Z,83.70
2018-04-10T02:47:42.992Z,83.70
2018-04-10T02:50:10.609Z,83.90
2018-04-10T02:52:38.595Z,83.90
2018-04-10T02:55:06.196Z,83.90
2018-04-10T02:57:34.170Z,83.90
2018-04-10T03:00:01.673Z,83.90
2018-04-10T03:02:29.655Z,83.60
2018-04-10T03:04:57.146Z,83.60
2018-04-10T03:07:25.056Z,83.80
2018-04-10T03:09:52.563Z,83.80
2018-04-10T03:12:20.089Z,83.90
2018-04-10T03:14:47.579Z,83.70
2018-04-10T03:17:15.087Z,83.90
2018-04-10T03:19:42.652Z,84.00
2018-04-10T03:22:10.349Z,83.80
2018-04-10T03:24:38.328Z,84.00
2018-04-10T03:27:06.250Z,84.10
2018-04-10T03:29:33.747Z,84.10
2018-04-10T03:32:01.272Z,84.00
2018-04-10T03:34:28.771Z,84.20
2018-04-10T03:36:56.279Z,84.20
2018-04-10T03:39:23.771Z,84.40
2018-04-10T03:41:51.332Z,84.20
2018-04-10T03:44:19.222Z,84.20
2018-04-10T03:46:47.128Z,84.50
2018-04-10T03:49:15.019Z,84.40
2018-04-10T03:51:42.936Z,84.60
2018-04-10T03:54:10.441Z,84.60
2018-04-10T03:56:37.962Z,84.50
2018-04-10T03:59:05.855Z,84.60
2018-04-10T04:01:33.373Z,84.60
2018-04-10T04:04:00.876Z,84.70
2018-04-10T04:06:28.401Z,84.60
2018-04-10T04:08:56.025Z,84.60
2018-04-10T04:11:23.548Z,84.70
2018-04-10T04:13:51.166Z,84.60
2018-04-10T04:16:31.145Z,84.50
2018-04-10T04:19:10.883Z,84.40
2018-04-10T04:21:50.469Z,84.40
2018-04-10T04:24:17.976Z,84.40
2018-04-10T04:26:45.880Z,84.40
2018-04-10T04:29:13.405Z,84.40
2018-04-10T04:31:40.912Z,84.60
2018-04-10T04:34:08.445Z,84.80
2018-04-10T04:36:36.105Z,84.80
2018-04-10T04:39:04.015Z,84.70
2018-04-10T04:41:31.524Z,84.70
2018-04-10T04:43:59.035Z,84.60
2018-04-10T04:46:26.545Z,84.80
2018-04-10T04:48:54.466Z,85.10
2018-04-10T04:51:21.977Z,85.10
2018-04-10T04:53:49.500Z,85.20
2018-04-10T04:56:17.496Z,85.60
2018-04-10T04:58:45.407Z,85.50
2018-04-10T05:01:12.898Z,85.40
2018-04-10T05:03:40.411Z,85.90
2018-04-10T05:06:07.912Z,86.00
2018-04-10T05:08:35.436Z,86.20
2018-04-10T05:11:02.956Z,86.30
2018-04-10T05:13:30.475Z,86.30
2018-04-10T05:15:58.064Z,86.50
2018-04-10T05:18:25.650Z,86.40
2018-04-10T05:20:53.146Z,86.00
2018-04-10T05:23:21.054Z,86.30
2018-04-10T05:25:48.569Z,86.30
2018-04-10T05:28:16.093Z,86.30
2018-04-10T05:30:43.617Z,86.40
2018-04-10T05:33:11.125Z,86.50
2018-04-10T05:35:38.696Z,86.70
2018-04-10T05:38:06.181Z,86.70
2018-04-10T05:40:33.691Z,86.70
2018-04-10T05:43:01.205Z,86.60
2018-04-10T05:45:29.117Z,86.60
2018-04-10T05:47:56.624Z,86.60
2018-04-10T05:50:24.159Z,86.70
2018-04-10T05:52:52.156Z,86.60
2018-04-10T05:55:20.077Z,86.50
2018-04-10T05:57:47.579Z,86.50
2018-04-10T06:00:15.101Z,86.50
2018-04-10T06:02:42.610Z,86.50
2018-04-10T06:05:10.533Z,86.50
2018-04-10T06:07:38.083Z,86.50
2018-04-10T06:10:06.088Z,86.40
2018-04-10T06:12:33.604Z,86.40
2018-04-10T06:15:01.142Z,86.20
2018-04-10T06:17:28.734Z,86.20
2018-04-10T06:19:56.649Z,83.60
2018-04-10T06:22:24.146Z,83.60
2018-04-10T06:24:51.670Z,83.90
2018-04-10T06:27:19.588Z,84.60
2018-04-10T06:29:47.510Z,84.90
2018-04-10T06:32:15.088Z,84.90
2018-04-10T06:34:42.614Z,85.10
2018-04-10T06:37:10.124Z,85.40
2018-04-10T06:39:38.048Z,85.20
2018-04-10T06:42:05.560Z,85.20
2018-04-10T06:44:33.088Z,85.50
2018-04-10T06:47:01.080Z,85.20
2018-04-10T06:49:28.985Z,85.20
2018-04-10T06:51:56.889Z,85.30
2018-04-10T06:54:24.447Z,85.40
2018-04-10T06:56:51.948Z,84.90
2018-04-10T06:59:19.853Z,84.60
2018-04-10T07:01:47.371Z,84.60
2018-04-10T07:04:14.883Z,84.80
2018-04-10T07:06:42.408Z,84.60
2018-04-10T07:09:09.917Z,84.40
2018-04-10T07:11:37.441Z,84.40
2018-04-10T07:14:05.037Z,84.50
2018-04-10T07:16:32.972Z,84.40
2018-04-10T07:19:00.480Z,84.40
2018-04-10T07:21:27.991Z,84.40
2018-04-10T07:23:55.890Z,84.40
2018-04-10T07:26:23.886Z,83.40
2018-04-10T07:28:51.886Z,83.60
2018-04-10T07:31:19.795Z,83.30
2018-04-10T07:33:47.300Z,83.30
2018-04-10T07:36:14.827Z,83.10
2018-04-10T07:38:42.733Z,82.60
2018-04-10T07:41:10.658Z,82.60
2018-04-10T07:43:38.170Z,82.60
2018-04-10T07:46:05.720Z,81.70
2018-04-10T07:48:33.240Z,81.60
2018-04-10T07:51:00.844Z,81.10
2018-04-10T07:53:28.440Z,81.40
2018-04-10T07:55:56.364Z,80.30
2018-04-10T07:58:23.863Z,80.30
2018-04-10T08:00:51.451Z,80.20
2018-04-10T08:03:18.942Z,78.40
2018-04-10T08:05:46.469Z,76.80
2018-04-10T08:08:14.359Z,75.50
2018-04-10T08:10:41.957Z,75.50
2018-04-10T08:13:09.948Z,74.50
2018-04-10T08:15:37.933Z,73.90
2018-04-10T08:18:05.443Z,73.90
2018-04-10T08:20:32.965Z,74.40
2018-04-10T08:23:00.466Z,73.80
2018-04-10T08:25:27.983Z,73.70
2018-04-10T08:27:55.965Z,70.40
2018-04-10T08:30:23.861Z,70.30
2018-04-10T08:32:51.776Z,68.50
2018-04-10T08:35:19.296Z,68.50
2018-04-10T08:37:46.818Z,69.30
2018-04-10T08:40:14.711Z,70.10
2018-04-10T08:42:42.625Z,70.50
2018-04-10T08:45:10.175Z,70.50
2018-04-10T08:47:37.704Z,69.70
2018-04-10T08:50:05.205Z,69.10
2018-04-10T08:52:32.725Z,69.40
2018-04-10T08:55:00.321Z,70.40
2018-04-10T08:57:28.249Z,70.10
2018-04-10T08:59:55.780Z,70.00
2018-04-10T09:02:23.304Z,71.00
2018-04-10T09:04:50.805Z,69.50
2018-04-10T09:07:18.327Z,66.90
2018-04-10T09:09:45.948Z,66.80
2018-04-10T09:12:13.842Z,67.60
2018-04-10T09:14:41.820Z,66.90
2018-04-10T09:17:09.345Z,66.90
2018-04-10T09:19:36.849Z,66.60
2018-04-10T09:22:04.381Z,67.20
2018-04-10T09:24:32.281Z,67.10
2018-04-10T09:27:00.193Z,66.90
2018-04-10T09:29:27.687Z,66.90
2018-04-10T09:31:55.201Z,66.20
2018-04-10T09:34:22.702Z,66.10
2018-04-10T09:36:50.211Z,66.30
2018-04-10T09:39:18.109Z,66.40
2018-04-10T09:41:45.659Z,66.40
2018-04-10T09:44:13.252Z,67.60
2018-04-10T09:46:41.242Z,67.60
2018-04-10T09:49:08.722Z,67.60
2018-04-10T09:51:36.325Z,67.80
2018-04-10T09:54:04.223Z,66.30
2018-04-10T09:56:32.153Z,66.50
2018-04-10T09:58:59.688Z,66.50
2018-04-10T10:01:27.586Z,67.00
2018-04-10T10:03:55.505Z,66.00
2018-04-10T10:06:23.057Z,66.00
2018-04-10T10:08:50.574Z,65.40
2018-04-10T10:11:18.133Z,65.90
2018-04-10T10:13:46.045Z,65.80
2018-04-10T10:16:13.549Z,65.80
2018-04-10T10:18:41.088Z,65.70
2018-04-10T10:21:08.574Z,65.50
2018-04-10T10:23:36.084Z,66.40
2018-04-10T10:26:03.656Z,66.60
2018-04-10T10:28:31.171Z,66.30
2018-04-10T10:30:58.654Z,66.60
2018-04-10T10:33:26.184Z,67.70
2018-04-10T10:35:53.671Z,68.00
2018-04-10T10:38:21.936Z,67.20
2018-04-10T10:40:49.462Z,67.20
2018-04-10T10:43:17.384Z,66.70
2018-04-10T10:45:44.872Z,66.60
2018-04-10T10:48:12.408Z,66.20
2018-04-10T10:50:39.910Z,65.80
2018-04-10T10:53:07.821Z,66.00
2018-04-10T10:55:35.311Z,66.00
2018-04-10T10:58:02.916Z,66.70
2018-04-10T11:00:30.391Z,66.20
2018-04-10T11:02:57.909Z,64.90
2018-04-10T11:05:25.508Z,64.70
2018-04-10T11:07:53.469Z,64.30
2018-04-10T11:10:20.930Z,64.30
2018-04-10T11:12:48.475Z,63.80
2018-04-10T11:15:16.381Z,63.90
2018-04-10T11:17:43.902Z,63.90
2018-04-10T11:20:11.396Z,64.30
2018-04-10T11:22:38.903Z,64.30
2018-04-10T11:25:06.388Z,65.10
2018-04-10T11:27:33.894Z,63.60
2018-04-10T11:30:01.873Z,63.00
2018-04-10T11:32:29.373Z,63.00
2018-04-10T11:34:57.285Z,62.50
2018-04-10T11:37:24.772Z,62.50
2018-04-10T11:39:52.275Z,63.20
2018-04-10T11:42:19.762Z,63.20
2018-04-10T11:44:47.277Z,62.70
2018-04-10T11:47:14.882Z,63.30
2018-04-10T11:49:42.793Z,62.60
2018-04-10T11:52:10.300Z,62.50
2018-04-10T11:54:37.862Z,61.90
2018-04-10T11:57:05.417Z,62.00
2018-04-10T11:59:33.003Z,62.10
2018-04-10T12:02:00.913Z,61.60
2018-04-10T12:04:28.444Z,61.60
2018-04-10T12:06:55.944Z,60.90
2018-04-10T12:09:23.482Z,61.10
2018-04-10T12:11:50.966Z,60.90
2018-04-10T12:14:18.500Z,59.70
2018-04-10T12:16:45.987Z,60.50
2018-04-10T12:19:13.496Z,59.20
2018-04-10T12:21:41.058Z,59.90
2018-04-10T12:24:08.568Z,59.80
2018-04-10T12:26:36.064Z,58.30
2018-04-10T12:29:03.574Z,59.70
2018-04-10T12:31:31.108Z,59.90
2018-04-10T12:33:59.035Z,59.80
2018-04-10T12:36:26.531Z,59.80
2018-04-10T12:38:54.057Z,59.10
2018-04-10T12:41:22.049Z,57.80
2018-04-10T12:43:49.985Z,58.10
2018-04-10T12:46:17.497Z,58.10
2018-04-10T12:48:44.995Z,57.90
2018-04-10T12:51:12.497Z,58.80
2018-04-10T12:53:40.393Z,57.50
2018-04-10T12:56:08.300Z,57.20
2018-04-10T12:58:35.787Z,57.20
2018-04-10T13:01:03.335Z,57.00
2018-04-10T13:03:30.814Z,56.90
2018-04-10T13:05:58.314Z,56.90
2018-04-10T13:08:26.194Z,57.00
2018-04-10T13:10:53.703Z,57.00
2018-04-10T13:13:21.696Z,56.30
2018-04-10T13:15:49.594Z,56.40
2018-04-10T13:18:17.088Z,56.40
2018-04-10T13:20:44.600Z,56.80
2018-04-10T13:23:12.093Z,56.30
2018-04-10T13:25:39.614Z,56.10
2018-04-10T13:28:07.495Z,56.00
2018-04-10T13:30:35.011Z,56.00
2018-04-10T13:33:02.558Z,56.70
2018-04-10T13:35:30.063Z,56.00
2018-04-10T13:37:58.030Z,55.80
2018-04-10T13:40:25.632Z,55.90
2018-04-10T13:42:53.529Z,55.20
2018-04-10T13:45:21.513Z,55.30
2018-04-10T13:47:49.117Z,55.30
2018-04-10T13:50:17.041Z,55.10
2018-04-10T13:52:44.531Z,55.20
2018-04-10T13:55:12.036Z,56.10
2018-04-10T13:57:39.540Z,56.10
2018-04-10T14:00:07.131Z,56.30
2018-04-10T14:02:34.619Z,56.00
2018-04-10T14:05:02.523Z,56.00
2018-04-10T14:07:30.413Z,55.50
2018-04-10T14:09:58.318Z,54.70
2018-04-10T14:12:25.801Z,54.70
2018-04-10T14:14:53.320Z,54.90
2018-04-10T14:17:20.816Z,54.60
2018-04-10T14:19:48.418Z,54.60
2018-04-10T14:22:15.937Z,54.40
2018-04-10T14:24:43.486Z,54.50
2018-04-10T14:27:11.006Z,56.70
2018-04-10T14:29:38.508Z,58.40
2018-04-10T14:32:06.038Z,58.60
2018-04-10T14:34:33.541Z,59.00
2018-04-10T14:37:01.472Z,58.40
2018-04-10T14:39:28.953Z,58.40
2018-04-10T14:41:56.492Z,59.10
2018-04-10T14:44:23.992Z,58.90
2018-04-10T14:46:51.515Z,59.00
2018-04-10T14:49:19.011Z,59.50
2018-04-10T14:51:46.561Z,59.50
2018-04-10T14:54:14.056Z,59.00
2018-04-10T14:56:41.574Z,59.20
2018-04-10T14:59:09.184Z,58.70
2018-04-10T15:01:37.158Z,59.10
2018-04-10T15:04:04.657Z,59.10
2018-04-10T15:06:32.590Z,59.10
2018-04-10T15:09:00.119Z,59.10
2018-04-10T15:11:27.627Z,59.20
2018-04-10T15:13:55.655Z,58.10
2018-04-10T15:16:23.152Z,58.10
2018-04-10T15:18:50.644Z,58.40
2018-04-10T15:21:18.161Z,58.10
2018-04-10T15:23:46.057Z,58.20
2018-04-10T15:26:14.043Z,58.00
2018-04-10T15:28:41.541Z,58.00
2018-04-10T15:31:09.075Z,58.80
2018-04-10T15:33:36.582Z,58.10
2018-04-10T15:36:04.171Z,59.30
2018-04-10T15:38:31.666Z,59.50
2018-04-10T15:40:59.277Z,59.70
2018-04-10T15:43:27.169Z,59.90
2018-04-10T15:45:54.682Z,59.90
2018-04-10T15:48:22.241Z,60.00
2018-04-10T15:50:49.787Z,59.90
2018-04-10T15:53:17.304Z,59.40
2018-04-10T15:55:44.860Z,59.60
2018-04-10T15:58:12.401Z,60.10
2018-04-10T16:00:39.912Z,59.20
2018-04-10T16:03:07.432Z,59.30
2018-04-10T16:05:35.336Z,59.10
2018-04-10T16:08:02.847Z,59.10
2018-04-10T16:10:30.341Z,58.90
2018-04-10T16:12:58.267Z,59.00
2018-04-10T16:15:25.769Z,59.00
2018-04-10T16:17:53.285Z,58.80
2018-04-10T16:20:20.832Z,59.70
2018-04-10T16:22:48.735Z,59.70
2018-04-10T16:25:16.219Z,59.70
2018-04-10T16:27:43.737Z,60.00
2018-04-10T16:30:11.232Z,59.80
2018-04-10T16:32:38.736Z,59.60
2018-04-10T16:35:06.231Z,59.40
2018-04-10T16:37:34.218Z,61.10
2018-04-10T16:40:01.746Z,61.10
2018-04-10T16:42:29.254Z,61.10
2018-04-10T16:44:56.777Z,61.80
2018-04-10T16:47:24.680Z,63.50
2018-04-10T16:49:52.606Z,63.60
2018-04-10T16:52:20.114Z,63.60
2018-04-10T16:54:47.597Z,63.90
2018-04-10T16:57:15.095Z,64.90
2018-04-10T16:59:42.709Z,66.30
2018-04-10T17:02:10.603Z,68.40
2018-04-10T17:04:38.499Z,67.90
2018-04-10T17:07:06.003Z,67.90
2018-04-10T17:09:33.486Z,68.70
2018-04-10T17:12:01.033Z,70.30
2018-04-10T17:14:28.914Z,73.00
2018-04-10T17:16:56.509Z,73.00
2018-04-10T17:19:24.406Z,75.40
2018-04-10T17:21:52.319Z,75.40
2018-04-10T17:24:19.828Z,75.40
2018-04-10T17:26:47.323Z,77.40
2018-04-10T17:29:14.826Z,80.40
2018-04-10T17:31:42.320Z,80.80
2018-04-10T17:34:09.823Z,80.30
2018-04-10T17:36:37.816Z,80.90
2018-04-10T17:39:06.529Z,79.50
2018-04-10T17:41:34.418Z,80.00
2018-04-10T17:44:02.327Z,80.60
2018-04-10T17:46:29.823Z,80.60
2018-04-10T17:48:57.382Z,79.90
2018-04-10T17:51:25.272Z,81.90
2018-04-10T17:53:53.194Z,83.40
2018-04-10T17:56:20.698Z,83.40
2018-04-10T17:58:48.211Z,85.50
2018-04-10T18:01:15.804Z,85.60
2018-04-10T18:03:43.800Z,85.90
2018-04-10T18:06:11.788Z,85.20
2018-04-10T18:08:39.709Z,85.80
2018-04-10T18:11:07.202Z,85.70
2018-04-10T18:13:34.769Z,86.10
2018-04-10T18:16:02.664Z,85.80
2018-04-10T18:18:30.601Z,85.80
2018-04-10T18:20:58.166Z,85.80
2018-04-10T18:23:25.732Z,84.60
2018-04-10T18:25:53.296Z,84.10
2018-04-10T18:28:20.806Z,85.60
2018-04-10T18:30:48.299Z,84.60
2018-04-10T18:33:15.820Z,86.20
2018-04-10T18:35:43.432Z,86.20
2018-04-10T18:38:11.428Z,86.20
2018-04-10T18:40:39.390Z,87.00
2018-04-10T18:43:06.925Z,87.00
2018-04-10T18:45:34.505Z,88.10
2018-04-10T18:48:02.413Z,89.00
2018-04-10T18:50:29.945Z,89.10
2018-04-10T18:52:57.969Z,92.00
2018-04-10T18:55:25.886Z,90.30
2018-04-10T18:57:53.378Z,90.30
2018-04-10T19:00:20.920Z,89.60
2018-04-10T19:02:48.920Z,88.10
2018-04-10T19:05:16.840Z,89.30
2018-04-10T19:07:44.551Z,89.30
2018-04-10T19:10:12.067Z,89.50
2018-04-10T19:12:39.887Z,90.50
2018-04-10T19:15:07.407Z,92.20
2018-04-10T19:17:35.161Z,93.60
2018-04-10T19:20:02.714Z,94.10
2018-04-10T19:22:30.461Z,94.50
2018-04-10T19:24:57.979Z,94.80
2018-04-10T19:27:25.714Z,95.30
2018-04-10T19:29:53.271Z,94.60
2018-04-10T19:32:20.905Z,95.10
2018-04-10T19:34:48.463Z,95.60
2018-04-10T19:37:16.034Z,94.90
2018-04-10T19:39:43.956Z,95.10
2018-04-10T19:42:11.611Z,95.10
2018-04-10T19:44:39.528Z,94.40
2018-04-10T19:47:07.209Z,94.40
2018-04-10T19:49:35.174Z,94.20
2018-04-10T19:52:02.679Z,94.20
2018-04-10T19:54:30.618Z,94.00
2018-04-10T19:56:58.132Z,94.00
2018-04-10T19:59:25.736Z,95.30
2018-04-10T20:01:53.781Z,94.30
2018-04-10T20:04:21.312Z,94.40
2018-04-10T20:06:49.268Z,93.10
2018-04-10T20:09:16.849Z,93.10
2018-04-10T20:11:44.381Z,93.30
2018-04-10T20:14:12.308Z,93.70
2018-04-10T20:16:39.843Z,93.70
2018-04-10T20:19:07.339Z,93.60
2018-04-10T20:21:35.250Z,92.90
2018-04-10T20:24:02.821Z,92.90
2018-04-10T20:26:30.817Z,92.50
2018-04-10T20:28:58.803Z,93.40
2018-04-10T20:31:26.800Z,93.60
2018-04-10T20:33:54.790Z,93.50
2018-04-10T20:36:22.804Z,93.00
2018-04-10T20:38:50.303Z,93.00
2018-04-10T20:41:17.810Z,93.80
2018-04-10T20:43:45.340Z,93.60
2018-04-10T20:46:13.246Z,93.80
2018-04-10T20:48:40.742Z,93.70
2018-04-10T20:51:08.266Z,94.40
2018-04-10T20:53:35.772Z,94.40
2018-04-10T20:56:03.290Z,94.60
2018-04-10T20:58:30.787Z,93.70
2018-04-10T21:00:58.303Z,94.30
2018-04-10T21:03:25.817Z,94.90
2018-04-10T21:05:53.727Z,94.90
2018-04-10T21:08:21.223Z,94.90
2018-04-10T21:10:48.739Z,94.90
2018-04-10T21:13:16.242Z,95.30
2018-04-10T21:15:43.783Z,96.10
2018-04-10T21:18:11.289Z,95.80
2018-04-10T21:20:38.818Z,95.00
2018-04-10T21:23:06.725Z,95.30
2018-04-10T21:25:34.231Z,95.30
2018-04-10T21:28:01.741Z,94.90
2018-04-10T21:30:29.265Z,95.10
2018-04-10T21:32:57.612Z,94.90
2018-04-10T21:35:25.127Z,94.90
2018-04-10T21:37:52.623Z,95.50
2018-04-10T21:40:20.616Z,94.70
2018-04-10T21:42:54.353Z,94.70
2018-04-10T21:45:22.345Z,94.10
2018-04-10T21:47:49.859Z,94.10
2018-04-10T21:50:17.377Z,94.50
2018-04-10T21:52:44.996Z,95.60
2018-04-10T21:55:12.897Z,97.20
2018-04-10T21:57:40.820Z,96.90
2018-04-10T22:00:08.336Z,96.90
2018-04-10T22:02:35.865Z,96.70
2018-04-10T22:05:03.752Z,96.20
2018-04-10T22:07:31.736Z,96.30
2018-04-10T22:09:59.637Z,96.10
2018-04-10T22:12:27.562Z,96.10
2018-04-10T22:14:55.092Z,96.10
2018-04-10T22:17:22.799Z,95.40
2018-04-10T22:19:50.704Z,96.10
2018-04-10T22:22:18.232Z,96.10
2018-04-10T22:24:45.742Z,96.40
2018-04-10T22:27:13.336Z,96.00
2018-04-10T22:29:41.243Z,95.60
2018-04-10T22:32:09.172Z,95.40
2018-04-10T22:34:36.654Z,95.40
2018-04-10T22:37:04.171Z,95.70
2018-04-10T22:39:32.151Z,95.90
2018-04-10T22:41:59.735Z,95.90
2018-04-10T22:44:27.227Z,95.80
2018-04-10T22:46:55.135Z,96.10
2018-04-10T22:49:22.627Z,96.10
2018-04-10T22:51:50.180Z,96.20
2018-04-10T22:54:26.341Z,94.70
2018-04-10T22:56:53.865Z,94.70
2018-04-10T22:59:21.756Z,92.30
2018-04-10T23:01:49.677Z,91.80
2018-04-10T23:04:17.179Z,91.80
2018-04-10T23:06:44.710Z,92.90
2018-04-10T23:09:12.216Z,92.90
2018-04-10T23:11:40.141Z,92.70
2018-04-10T23:14:07.660Z,92.70
2018-04-10T23:16:35.186Z,91.50
2018-04-10T23:19:03.095Z,92.30
2018-04-10T23:21:30.595Z,92.30
2018-04-10T23:23:58.140Z,92.40
2018-04-10T23:26:25.723Z,91.70
2018-04-10T23:28:53.244Z,91.70
2018-04-10T23:31:20.757Z,91.90
2018-04-10T23:33:48.285Z,91.70
2018-04-10T23:36:16.275Z,90.80
2018-04-10T23:38:43.788Z,90.70
2018-04-10T23:41:11.306Z,90.40
2018-04-10T23:43:38.837Z,89.80
2018-04-10T23:46:06.743Z,89.10
2018-04-10T23:48:34.656Z,88.20
2018-04-10T23:51:02.210Z,88.20
2018-04-10T23:53:30.117Z,89.20
2018-04-10T23:55:58.008Z,89.20
2018-04-10T23:58:25.535Z,89.20
